Time;durP1;ratioP1;P1;durP2;ratioP2;P2;SDS_P1;SDS_P2;PMS_P1;PMS_P2;Temp;Humidity;BMP_temperature;BMP_pressure;BME280_temperature;BME280_humidity;BME280_pressure;Samples;Min_cycle;Max_cycle;Signal;HPM_P1;HPM_P2
2024/02/23 00:00:00;;;;;;;29.83;16.08;;;;;;;5.43;99.84;99995.22;5027298;28;20025;-79
2024/02/23 00:02:25;;;;;;;26.17;16.65;;;;;;;5.57;98.64;99985.59;5030230;28;20036;-78
2024/02/23 00:04:51;;;;;;;27.38;17.55;;;;;;;5.58;99.58;100008.41;5047129;28;20442;-80
2024/02/23 00:07:16;;;;;;;27.15;15.88;;;;;;;5.07;100.00;100019.84;5047044;28;20048;-79
2024/02/23 00:09:42;;;;;;;28.77;16.50;;;;;;;4.61;100.00;100012.88;5028535;28;20081;-79
2024/02/23 00:12:08;;;;;;;23.65;15.15;;;;;;;4.25;100.00;100033.91;5026174;28;20029;-78
2024/02/23 00:14:36;;;;;;;29.20;16.45;;;;;;;4.36;100.00;100036.09;5038102;28;20032;-79
2024/02/23 00:17:02;;;;;;;25.08;15.48;;;;;;;4.88;100.00;100018.53;5026882;28;20041;-79
2024/02/23 00:19:30;;;;;;;25.67;15.30;;;;;;;5.12;100.00;100008.69;5027580;28;20041;-80
2024/02/23 00:21:55;;;;;;;38.58;19.05;;;;;;;5.37;100.00;100035.63;5027651;28;20041;-80
2024/02/23 00:24:20;;;;;;;63.38;25.33;;;;;;;4.69;100.00;100004.06;5027875;28;20022;-80
2024/02/23 00:26:46;;;;;;;28.58;16.30;;;;;;;4.55;100.00;100040.03;5030958;28;20107;-80
2024/02/23 00:29:12;;;;;;;25.85;15.68;;;;;;;4.94;100.00;100011.72;5035483;28;20045;-78
2024/02/23 00:31:40;;;;;;;28.15;16.77;;;;;;;5.39;100.00;100020.41;5036014;28;20037;-78
2024/02/23 00:34:10;;;;;;;26.65;15.70;;;;;;;5.07;100.00;100005.78;5034697;28;20022;-79
2024/02/23 00:36:36;;;;;;;28.45;15.95;;;;;;;4.44;100.00;99990.31;5035178;28;20022;-80
2024/02/23 00:39:02;;;;;;;23.75;15.52;;;;;;;4.75;100.00;100013.91;5040568;28;20025;-80
2024/02/23 00:41:27;;;;;;;25.17;14.93;;;;;;;4.83;100.00;100003.25;5035765;28;20036;-79
2024/02/23 00:43:53;;;;;;;25.95;14.48;;;;;;;5.06;100.00;100009.44;5044134;28;20490;-80
2024/02/23 00:46:18;;;;;;;27.52;16.13;;;;;;;5.28;100.00;100003.19;5035856;28;20033;-77
2024/02/23 00:48:44;;;;;;;27.35;16.55;;;;;;;5.02;100.00;99978.06;5037888;28;20057;-79
2024/02/23 00:51:09;;;;;;;24.38;15.63;;;;;;;5.16;100.00;99971.13;5036982;28;20091;-78
2024/02/23 00:53:34;;;;;;;28.80;15.65;;;;;;;5.37;100.00;100002.09;5036053;28;20079;-79
2024/02/23 00:56:00;;;;;;;43.83;19.77;;;;;;;5.30;100.00;100021.53;5037793;28;20507;-80
2024/02/23 00:58:25;;;;;;;26.13;15.60;;;;;;;4.57;100.00;100005.53;5036094;28;20032;-79
2024/02/23 01:00:51;;;;;;;24.55;15.85;;;;;;;4.76;100.00;99983.84;5056799;28;20121;-79
2024/02/23 01:03:16;;;;;;;27.58;16.02;;;;;;;5.12;100.00;99993.66;5056988;28;20047;-79
2024/02/23 01:05:42;;;;;;;27.35;15.93;;;;;;;5.12;100.00;100006.88;5041971;28;20029;-78
2024/02/23 01:08:08;;;;;;;26.50;16.45;;;;;;;5.11;100.00;100007.03;5035291;28;20399;-79
2024/02/23 01:10:33;;;;;;;27.70;16.25;;;;;;;5.23;100.00;99984.41;5034979;28;20434;-79
2024/02/23 01:12:58;;;;;;;28.25;16.42;;;;;;;4.56;100.00;99965.09;5033858;28;20684;-80
2024/02/23 01:15:24;;;;;;;30.00;16.08;;;;;;;4.69;100.00;99982.94;5032421;28;20044;-78
2024/02/23 01:17:49;;;;;;;29.02;16.25;;;;;;;4.93;100.00;99978.38;5031993;28;20036;-79
2024/02/23 01:20:15;;;;;;;26.38;14.90;;;;;;;4.81;100.00;99996.50;5032228;28;20120;-80
2024/02/23 01:22:40;;;;;;;24.80;15.38;;;;;;;4.74;100.00;99977.09;5031722;28;20032;-79
2024/02/23 01:25:06;;;;;;;27.92;16.17;;;;;;;4.94;100.00;99974.72;5031626;28;20131;-80
2024/02/23 01:27:32;;;;;;;27.35;15.70;;;;;;;4.36;100.00;99983.28;5030632;28;20053;-80
2024/02/23 01:29:58;;;;;;;28.10;15.23;;;;;;;4.55;100.00;99983.75;5031276;28;20087;-79
2024/02/23 01:32:23;;;;;;;24.27;15.38;;;;;;;4.92;100.00;99971.44;5030696;28;20052;-80
2024/02/23 01:34:49;;;;;;;25.70;16.25;;;;;;;5.06;100.00;99973.25;5031005;28;20037;-79
2024/02/23 01:37:14;;;;;;;25.33;14.43;;;;;;;5.14;100.00;99981.06;5030805;28;20087;-79
2024/02/23 01:39:40;;;;;;;25.40;15.95;;;;;;;5.08;100.00;99992.38;5029971;28;20076;-79
2024/02/23 01:42:05;;;;;;;24.98;15.98;;;;;;;4.89;100.00;99951.50;5029463;28;20030;-80
2024/02/23 01:44:30;;;;;;;28.00;15.73;;;;;;;5.12;100.00;99985.72;5029360;28;20029;-79
2024/02/23 01:46:56;;;;;;;30.92;19.40;;;;;;;5.08;100.00;99976.53;5028657;28;20049;-78
2024/02/23 01:49:22;;;;;;;28.38;16.88;;;;;;;4.85;100.00;99970.56;5035524;28;20025;-79
2024/02/23 01:51:49;;;;;;;29.02;17.20;;;;;;;4.87;100.00;99956.16;5049435;28;20033;-79
2024/02/23 01:54:15;;;;;;;27.23;15.75;;;;;;;4.66;100.00;99946.34;5049188;28;20029;-79
2024/02/23 01:56:40;;;;;;;27.88;17.33;;;;;;;4.73;100.00;99963.06;5034613;28;20037;-78
2024/02/23 01:59:06;;;;;;;25.08;15.48;;;;;;;4.67;100.00;99921.53;5032047;28;20028;-79
2024/02/23 02:01:31;;;;;;;27.40;15.80;;;;;;;4.73;100.00;99946.41;5048444;28;20079;-80
2024/02/23 02:03:58;;;;;;;28.60;16.50;;;;;;;5.13;100.00;99953.00;5047042;28;20487;-79
2024/02/23 02:06:24;;;;;;;27.98;16.33;;;;;;;4.93;98.51;99944.03;5028107;28;20414;-78
2024/02/23 02:08:50;;;;;;;26.77;16.40;;;;;;;4.72;98.57;99939.47;5029021;28;20410;-80
2024/02/23 02:11:15;;;;;;;26.98;15.05;;;;;;;4.56;99.81;99951.88;5029329;28;20037;-79
2024/02/23 02:13:41;;;;;;;26.15;16.08;;;;;;;4.55;100.00;99967.91;5029378;28;20033;-79
2024/02/23 02:16:06;;;;;;;26.88;16.25;;;;;;;4.35;100.00;99959.69;5029083;28;20125;-79
2024/02/23 02:18:32;;;;;;;28.20;16.77;;;;;;;4.10;100.00;99954.66;5029078;28;20477;-79
2024/02/23 02:20:58;;;;;;;25.17;15.60;;;;;;;4.05;100.00;99972.03;5027109;28;20029;-79
2024/02/23 02:23:26;;;;;;;25.15;14.93;;;;;;;4.40;100.00;99946.78;5029301;28;20029;-80
2024/02/23 02:25:58;;;;;;;24.92;15.77;;;;;;;4.56;100.00;99973.00;5028695;28;20446;-78
2024/02/23 02:28:25;;;;;;;25.65;14.27;;;;;;;4.22;100.00;99966.41;5029132;28;20029;-80
2024/02/23 02:30:52;;;;;;;22.92;14.82;;;;;;;4.16;100.00;99953.13;5027455;28;20044;-79
2024/02/23 02:33:18;;;;;;;25.08;14.93;;;;;;;4.08;100.00;99943.47;5029199;28;20112;-80
2024/02/23 02:35:43;;;;;;;28.15;16.17;;;;;;;4.12;100.00;99962.41;5027357;28;20542;-79
2024/02/23 02:38:10;;;;;;;27.23;15.88;;;;;;;3.93;100.00;99972.47;5029119;28;20617;-79
2024/02/23 02:40:36;;;;;;;26.35;15.85;;;;;;;3.91;100.00;99958.63;5028422;28;20085;-79
2024/02/23 02:43:01;;;;;;;24.95;15.20;;;;;;;3.61;100.00;99915.50;5028488;28;20442;-78
2024/02/23 02:45:27;;;;;;;26.15;14.85;;;;;;;3.75;100.00;99958.75;5036473;28;20025;-79
2024/02/23 02:47:53;;;;;;;26.33;15.88;;;;;;;4.07;100.00;99972.69;5030627;28;20029;-79
2024/02/23 02:50:18;;;;;;;26.15;15.77;;;;;;;4.11;100.00;99973.97;5028179;28;20179;-79
2024/02/23 02:52:44;;;;;;;25.00;14.50;;;;;;;4.18;100.00;99974.88;5028347;28;20153;-78
2024/02/23 02:55:09;;;;;;;24.80;14.05;;;;;;;3.82;100.00;99976.34;5028346;28;20042;-80
2024/02/23 02:57:38;;;;;;;24.10;14.40;;;;;;;3.79;100.00;99970.59;5028421;28;20021;-80
2024/02/23 03:00:08;;;;;;;22.73;13.35;;;;;;;3.78;100.00;99966.31;5035181;28;20104;-79
2024/02/23 03:02:35;;;;;;;25.10;14.68;;;;;;;3.86;100.00;99971.50;5028144;28;20029;-78
2024/02/23 03:05:00;;;;;;;23.90;14.50;;;;;;;3.80;100.00;99977.50;5029083;28;20040;-79
2024/02/23 03:07:26;;;;;;;25.77;14.77;;;;;;;3.56;100.00;99945.06;5047917;28;20570;-79
2024/02/23 03:09:51;;;;;;;25.75;15.00;;;;;;;3.95;100.00;99965.19;5038692;28;20800;-79
2024/02/23 03:12:17;;;;;;;26.30;14.70;;;;;;;3.91;100.00;99969.19;5027730;28;20026;-79
2024/02/23 03:14:43;;;;;;;26.52;15.73;;;;;;;3.71;100.00;99946.94;5028115;28;20045;-79
2024/02/23 03:17:09;;;;;;;23.77;14.23;;;;;;;3.84;100.00;99962.97;5028070;28;20041;-79
2024/02/23 03:19:35;;;;;;;23.77;15.18;;;;;;;3.95;100.00;99986.28;5028084;28;20564;-78
2024/02/23 03:22:00;;;;;;;26.75;14.48;;;;;;;4.03;100.00;99970.38;5028170;28;20022;-78
2024/02/23 03:24:26;;;;;;;23.83;15.60;;;;;;;4.06;100.00;99971.84;5026546;28;20118;-80
2024/02/23 03:26:51;;;;;;;26.88;15.50;;;;;;;3.78;100.00;99963.66;5027789;28;20100;-79
2024/02/23 03:29:17;;;;;;;26.35;15.82;;;;;;;3.83;100.00;99963.97;5027518;28;20033;-79
2024/02/23 03:31:42;;;;;;;26.23;16.02;;;;;;;4.14;100.00;99981.50;5045120;28;20021;-80
2024/02/23 03:34:08;;;;;;;25.92;14.88;;;;;;;3.86;100.00;99968.88;5047215;28;20116;-79
2024/02/23 03:36:34;;;;;;;26.52;15.05;;;;;;;3.74;100.00;99957.09;5037946;28;20017;-79
2024/02/23 03:39:00;;;;;;;28.30;15.52;;;;;;;3.79;100.00;99976.69;5044496;28;20521;-80
2024/02/23 03:41:25;;;;;;;27.80;16.58;;;;;;;3.72;100.00;99953.81;5027248;28;20025;-79
2024/02/23 03:43:51;;;;;;;29.33;15.80;;;;;;;3.88;100.00;99976.63;5027556;28;20102;-78
2024/02/23 03:46:17;;;;;;;26.73;15.18;;;;;;;3.78;100.00;99942.56;5059069;28;20060;-81
2024/02/23 03:48:44;;;;;;;34.53;16.67;;;;;;;3.21;100.00;99942.00;5027460;28;20116;-79
2024/02/23 03:51:09;;;;;;;26.45;15.15;;;;;;;2.54;100.00;99944.28;5027295;28;20048;-79
2024/02/23 03:53:34;;;;;;;24.35;15.00;;;;;;;2.41;100.00;99950.91;5027094;28;20037;-78
2024/02/23 03:56:00;;;;;;;24.48;14.88;;;;;;;2.21;100.00;99975.94;5027296;28;20033;-78
2024/02/23 03:58:25;;;;;;;23.60;13.52;;;;;;;1.61;100.00;99966.56;5027551;28;20025;-79
2024/02/23 04:00:51;;;;;;;22.02;13.73;;;;;;;1.40;100.00;99959.16;5027206;28;20380;-79
2024/02/23 04:03:17;;;;;;;28.77;14.98;;;;;;;1.35;100.00;99974.59;5027143;28;20029;-80
2024/02/23 04:05:43;;;;;;;25.73;15.18;;;;;;;1.32;100.00;99957.31;5027149;28;20025;-78
2024/02/23 04:08:08;;;;;;;26.10;15.77;;;;;;;1.34;100.00;99962.44;5025807;28;20072;-78
2024/02/23 04:10:34;;;;;;;28.75;16.60;;;;;;;1.60;100.00;99910.53;5027279;28;20022;-79
2024/02/23 04:13:00;;;;;;;28.33;16.27;;;;;;;1.92;100.00;99952.75;5026971;28;20040;-78
2024/02/23 04:15:25;;;;;;;40.72;21.15;;;;;;;2.12;100.00;99955.88;5025128;28;20130;-79
2024/02/23 04:17:51;;;;;;;31.75;17.75;;;;;;;2.38;100.00;99961.75;5026816;28;20124;-80
2024/02/23 04:20:16;;;;;;;28.30;17.13;;;;;;;2.24;100.00;99943.19;5030088;28;20047;-80
2024/02/23 04:22:42;;;;;;;32.35;17.73;;;;;;;1.85;100.00;99944.72;5028840;28;20025;-79
2024/02/23 04:25:07;;;;;;;29.35;17.45;;;;;;;2.10;100.00;99947.31;5026385;28;20022;-78
2024/02/23 04:27:33;;;;;;;30.70;17.42;;;;;;;2.37;100.00;99970.63;5035376;28;20033;-79
2024/02/23 04:29:58;;;;;;;29.40;17.13;;;;;;;2.18;100.00;99942.06;5028638;28;20037;-79
2024/02/23 04:32:24;;;;;;;32.47;18.88;;;;;;;2.48;100.00;99966.00;5026426;28;20087;-79
2024/02/23 04:34:49;;;;;;;29.42;17.42;;;;;;;2.53;100.00;99990.00;5027071;28;20025;-79
2024/02/23 04:37:14;;;;;;;33.83;19.35;;;;;;;2.73;100.00;99991.25;5031636;28;20029;-78
2024/02/23 04:39:41;;;;;;;30.13;16.45;;;;;;;2.52;100.00;99967.31;5031272;28;20135;-79
2024/02/23 04:42:08;;;;;;;29.10;17.85;;;;;;;2.36;100.00;99952.38;5039057;28;20036;-78
2024/02/23 04:44:34;;;;;;;30.80;17.10;;;;;;;2.62;100.00;99975.84;5046373;28;20061;-79
2024/02/23 04:47:00;;;;;;;38.05;24.60;;;;;;;2.34;100.00;99934.13;5044682;28;20494;-78
2024/02/23 04:49:25;;;;;;;31.52;17.65;;;;;;;1.83;100.00;99957.22;5026454;28;20093;-77
2024/02/23 04:51:51;;;;;;;32.30;18.70;;;;;;;1.80;100.00;99936.53;5027288;28;20022;-79
2024/02/23 04:54:16;;;;;;;33.38;21.33;;;;;;;2.28;100.00;99940.06;5026084;28;20130;-77
2024/02/23 04:56:41;;;;;;;33.08;18.08;;;;;;;2.64;100.00;99987.03;5026512;28;20027;-79
2024/02/23 04:59:07;;;;;;;32.17;17.45;;;;;;;2.46;100.00;99966.19;5026313;28;20030;-79
2024/02/23 05:01:38;;;;;;;32.50;19.83;;;;;;;2.87;100.00;99997.63;5024947;28;20095;-79
2024/02/23 05:04:04;;;;;;;29.83;16.65;;;;;;;2.70;100.00;99980.28;5026332;28;20117;-78
2024/02/23 05:06:30;;;;;;;31.08;17.13;;;;;;;2.76;100.00;99996.22;5025981;28;20104;-78
2024/02/23 05:08:55;;;;;;;26.65;16.05;;;;;;;2.57;100.00;99978.16;5026303;28;20032;-79
2024/02/23 05:11:21;;;;;;;29.83;16.75;;;;;;;2.51;100.00;99970.94;5025888;28;20044;-78
2024/02/23 05:13:47;;;;;;;107.72;93.97;;;;;;;2.63;100.00;99995.09;5026067;28;20033;-80
2024/02/23 05:16:16;;;;;;;31.98;19.20;;;;;;;2.77;100.00;99995.19;5024828;28;20045;-78
2024/02/23 05:18:41;;;;;;;38.50;24.55;;;;;;;2.78;100.00;99991.59;5024741;28;20120;-78
2024/02/23 05:21:07;;;;;;;65.43;46.35;;;;;;;2.69;100.00;100011.03;5026416;28;20113;-78
2024/02/23 05:23:33;;;;;;;30.95;18.67;;;;;;;2.74;100.00;99977.13;5025921;28;20021;-78
2024/02/23 05:25:59;;;;;;;38.58;24.27;;;;;;;2.92;100.00;99997.13;5025883;28;20037;-79
2024/02/23 05:28:24;;;;;;;80.90;42.80;;;;;;;4.08;100.00;99990.16;5025952;28;20029;-79
2024/02/23 05:30:50;;;;;;;32.63;18.73;;;;;;;4.15;100.00;100017.47;5025905;28;20017;-78
2024/02/23 05:33:16;;;;;;;35.30;23.55;;;;;;;5.27;100.00;100020.09;5026744;28;20029;-78
2024/02/23 05:35:41;;;;;;;48.72;42.08;;;;;;;6.45;100.00;100010.00;5029450;28;20379;-81
2024/02/23 05:38:07;;;;;;;28.38;16.85;;;;;;;6.04;96.74;99987.69;5033781;28;20402;-78
2024/02/23 05:40:33;;;;;;;28.05;16.90;;;;;;;6.19;94.01;100037.09;5034526;28;20053;-77
2024/02/23 05:42:58;;;;;;;26.80;16.52;;;;;;;6.35;98.63;100042.13;5029315;28;20025;-78
2024/02/23 05:45:24;;;;;;;28.10;19.05;;;;;;;6.54;92.90;100045.13;5028196;28;20410;-78
2024/02/23 05:47:49;;;;;;;26.63;17.45;;;;;;;4.53;86.25;100072.91;5027913;28;20053;-80
2024/02/23 05:50:15;;;;;;;27.13;15.82;;;;;;;3.17;95.56;100056.66;5029621;28;20033;-78
2024/02/23 05:52:40;;;;;;;27.38;17.10;;;;;;;2.55;100.00;100053.84;5029078;28;20391;-79
2024/02/23 05:55:06;;;;;;;45.53;31.27;;;;;;;2.74;100.00;100019.25;5029352;28;20026;-78
2024/02/23 05:57:32;;;;;;;52.05;34.30;;;;;;;3.10;100.00;100055.66;5029087;28;20029;-78
2024/02/23 05:59:57;;;;;;;47.53;30.52;;;;;;;3.26;100.00;100031.06;5029382;28;20026;-79
2024/02/23 06:02:23;;;;;;;35.95;21.88;;;;;;;3.40;100.00;100034.78;5028954;28;20040;-80
2024/02/23 06:04:48;;;;;;;34.25;20.60;;;;;;;3.40;100.00;100043.53;5028816;28;20481;-78
2024/02/23 06:07:17;;;;;;;35.10;19.33;;;;;;;3.40;100.00;100029.53;5029441;28;20040;-80
2024/02/23 06:09:42;;;;;;;;;;;;;;;3.59;100.00;100044.06;5035468;28;20706;-80
2024/02/23 06:12:08;;;;;;;42.25;27.67;;;;;;;3.50;100.00;100016.94;5028935;28;19924;-78
2024/02/23 06:14:34;;;;;;;58.88;40.22;;;;;;;3.78;100.00;100033.09;5027204;28;20022;-78
2024/02/23 06:16:59;;;;;;;37.63;24.15;;;;;;;4.05;100.00;100030.91;5028655;28;20053;-80
2024/02/23 06:19:25;;;;;;;35.35;21.45;;;;;;;4.43;100.00;100065.22;5028436;28;20029;-80
2024/02/23 06:21:50;;;;;;;34.53;22.40;;;;;;;4.45;100.00;100039.47;5028984;28;20038;-78
2024/02/23 06:24:16;;;;;;;32.80;20.65;;;;;;;4.47;100.00;100055.13;5029052;28;20021;-78
2024/02/23 06:26:42;;;;;;;31.20;19.40;;;;;;;4.55;100.00;100057.69;5028686;28;20120;-79
2024/02/23 06:29:11;;;;;;;34.42;21.20;;;;;;;4.56;100.00;100036.41;5028721;28;20151;-78
2024/02/23 06:31:38;;;;;;;34.58;21.33;;;;;;;4.89;100.00;100062.47;5045724;28;20761;-78
2024/02/23 06:34:03;;;;;;;35.35;20.58;;;;;;;4.95;100.00;100072.31;5048089;28;20109;-78
2024/02/23 06:36:29;;;;;;;37.80;20.63;;;;;;;5.13;100.00;100079.91;5048230;28;20108;-78
2024/02/23 06:38:54;;;;;;;36.20;20.50;;;;;;;5.12;100.00;100066.84;5046856;28;20401;-78
2024/02/23 06:41:20;;;;;;;34.50;21.17;;;;;;;5.59;100.00;100066.41;5027745;28;20033;-78
2024/02/23 06:43:45;;;;;;;34.22;20.67;;;;;;;5.69;100.00;100074.06;5027857;28;20124;-78
2024/02/23 06:46:11;;;;;;;38.03;20.10;;;;;;;5.63;100.00;100091.50;5027416;28;20029;-78
2024/02/23 06:48:37;;;;;;;35.65;21.02;;;;;;;5.57;100.00;100105.47;5028204;28;20201;-80
2024/02/23 06:51:03;;;;;;;33.33;20.25;;;;;;;5.44;100.00;100098.19;5026694;28;20047;-78
2024/02/23 06:53:29;;;;;;;35.50;22.10;;;;;;;5.63;100.00;100085.38;5027930;28;20025;-78
2024/02/23 06:55:55;;;;;;;35.45;22.65;;;;;;;5.95;100.00;100076.19;5028408;28;20029;-79
2024/02/23 06:58:20;;;;;;;36.90;21.77;;;;;;;5.86;100.00;100069.34;5027981;28;20514;-78
2024/02/23 07:00:46;;;;;;;38.92;24.27;;;;;;;5.90;100.00;100064.50;5029774;28;20560;-79
2024/02/23 07:03:11;;;;;;;49.85;28.13;;;;;;;5.78;100.00;100050.94;5026375;28;20033;-79
2024/02/23 07:05:37;;;;;;;39.45;26.17;;;;;;;6.01;100.00;100045.50;5027413;28;20025;-80
2024/02/23 07:08:02;;;;;;;36.28;21.98;;;;;;;6.54;100.00;100084.84;5027669;28;20394;-80
2024/02/23 07:10:28;;;;;;;36.22;22.30;;;;;;;6.53;100.00;100085.88;5027295;28;20458;-81
2024/02/23 07:12:55;;;;;;;100.07;69.57;;;;;;;6.70;100.00;100089.06;5026219;28;20136;-80
2024/02/23 07:15:21;;;;;;;36.97;24.05;;;;;;;6.82;100.00;100064.50;5027119;28;20060;-80
2024/02/23 07:17:46;;;;;;;36.10;23.38;;;;;;;7.16;100.00;100076.09;5026161;28;20025;-79
2024/02/23 07:20:12;;;;;;;95.80;69.90;;;;;;;7.04;100.00;100056.44;5028587;28;20829;-79
2024/02/23 07:22:38;;;;;;;45.80;32.85;;;;;;;7.01;99.05;100041.75;5027532;28;20036;-79
2024/02/23 07:25:04;;;;;;;142.77;94.07;;;;;;;7.48;98.11;100073.81;5025794;28;20036;-78
2024/02/23 07:27:32;;;;;;;43.03;27.17;;;;;;;7.56;98.68;100081.59;5027259;28;20506;-80
2024/02/23 07:29:58;;;;;;;84.05;50.28;;;;;;;7.58;97.15;100079.56;5027221;28;20033;-79
2024/02/23 07:32:23;;;;;;;41.58;28.15;;;;;;;7.84;95.25;100046.94;5026674;28;20037;-79
2024/02/23 07:34:49;;;;;;;201.00;114.40;;;;;;;8.35;92.95;100068.66;5026052;28;20100;-78
2024/02/23 07:37:15;;;;;;;118.50;67.05;;;;;;;8.36;91.72;100073.78;5027389;28;20025;-79
2024/02/23 07:39:40;;;;;;;38.47;23.85;;;;;;;8.56;90.09;100060.53;5027039;28;20041;-78
2024/02/23 07:42:06;;;;;;;37.75;23.83;;;;;;;8.49;92.91;100061.56;5026732;28;20029;-79
2024/02/23 07:44:32;;;;;;;55.10;34.22;;;;;;;8.65;91.27;100047.84;5025912;28;20482;-79
2024/02/23 07:46:59;;;;;;;26.83;18.70;;;;;;;8.74;88.52;100059.88;5026818;28;20026;-78
2024/02/23 07:49:24;;;;;;;30.60;18.35;;;;;;;8.67;90.96;100072.38;5027348;28;20121;-80
2024/02/23 07:51:50;;;;;;;29.63;17.67;;;;;;;9.00;88.92;100050.22;5027126;28;20112;-79
2024/02/23 07:54:16;;;;;;;27.17;17.25;;;;;;;9.40;85.35;100045.59;5011537;28;20422;-79
2024/02/23 07:56:41;;;;;;;26.50;16.77;;;;;;;9.55;84.45;100050.63;5006840;28;20025;-79
2024/02/23 07:59:07;;;;;;;25.92;16.38;;;;;;;9.52;85.98;100051.06;5006960;28;20528;-79
2024/02/23 08:01:32;;;;;;;25.65;16.55;;;;;;;9.68;85.34;100052.41;5052161;28;20033;-79
2024/02/23 08:03:57;;;;;;;24.45;16.08;;;;;;;9.71;83.61;100059.97;5071869;28;20102;-79
2024/02/23 08:06:23;;;;;;;23.50;14.85;;;;;;;9.71;83.68;100045.84;5046953;28;20027;-79
2024/02/23 08:08:48;;;;;;;26.02;17.10;;;;;;;9.78;82.75;100051.94;5046667;28;20028;-79
2024/02/23 08:11:14;;;;;;;25.23;17.10;;;;;;;9.63;81.52;100029.06;5029548;28;20080;-78
2024/02/23 08:13:40;;;;;;;26.15;17.00;;;;;;;9.99;82.51;100050.78;5018751;28;20041;-79
2024/02/23 08:16:06;;;;;;;26.42;17.25;;;;;;;10.23;81.10;100049.97;5026705;28;20184;-78
2024/02/23 08:18:32;;;;;;;31.17;19.50;;;;;;;10.53;79.62;100043.22;5026704;28;20104;-79
2024/02/23 08:20:58;;;;;;;26.95;20.38;;;;;;;10.37;78.95;100017.94;5029662;28;20031;-79
2024/02/23 08:23:24;;;;;;;25.83;16.80;;;;;;;10.89;77.07;100061.16;5014919;28;20033;-79
2024/02/23 08:25:50;;;;;;;21.52;16.15;;;;;;;10.95;74.98;100067.44;5026453;28;20036;-78
2024/02/23 08:28:16;;;;;;;22.88;16.70;;;;;;;10.93;74.50;100069.50;5026636;28;20502;-79
2024/02/23 08:30:41;;;;;;;27.00;16.52;;;;;;;11.12;74.80;100063.16;5026169;28;20033;-79
2024/02/23 08:33:09;;;;;;;23.42;15.10;;;;;;;11.21;72.03;100072.47;5026634;28;20021;-78
2024/02/23 08:35:35;;;;;;;21.80;14.93;;;;;;;11.42;69.83;100068.56;5026268;28;20037;-78
2024/02/23 08:38:01;;;;;;;21.98;15.07;;;;;;;11.36;69.05;100073.97;5026217;28;20025;-78
2024/02/23 08:40:26;;;;;;;23.10;16.10;;;;;;;11.46;70.29;100063.56;5025542;28;20028;-77
2024/02/23 08:42:51;;;;;;;25.50;16.42;;;;;;;11.50;70.33;100062.06;5025221;28;20141;-79
2024/02/23 08:45:17;;;;;;;22.88;15.75;;;;;;;11.63;68.78;100051.22;5026335;28;20405;-79
2024/02/23 08:47:43;;;;;;;23.75;15.95;;;;;;;11.78;66.85;100044.66;5026573;28;20041;-79
2024/02/23 08:50:09;;;;;;;21.90;14.57;;;;;;;11.84;64.82;100054.44;5026265;28;20584;-78
2024/02/23 08:52:34;;;;;;;20.52;14.63;;;;;;;12.14;64.64;100046.44;5025433;28;20037;-79
2024/02/23 08:55:00;;;;;;;22.00;14.65;;;;;;;12.21;65.49;100049.00;5027021;28;20041;-78
2024/02/23 08:57:27;;;;;;;21.52;14.77;;;;;;;12.54;65.46;100063.69;5026285;28;20175;-80
2024/02/23 08:59:53;;;;;;;20.80;13.88;;;;;;;12.48;64.67;100044.00;5026576;28;20414;-79
2024/02/23 09:02:19;;;;;;;22.35;15.70;;;;;;;12.70;64.51;100041.56;5026255;28;20032;-79
2024/02/23 09:04:45;;;;;;;23.55;14.48;;;;;;;13.07;63.60;100068.06;5026051;28;20799;-79
2024/02/23 09:07:11;;;;;;;26.27;15.90;;;;;;;12.82;62.54;100042.38;5026458;28;20029;-79
2024/02/23 09:09:36;;;;;;;22.10;15.00;;;;;;;12.83;65.02;100056.56;5028782;28;20415;-78
2024/02/23 09:12:02;;;;;;;21.23;15.00;;;;;;;12.90;63.75;100056.47;5029752;28;20517;-78
2024/02/23 09:14:27;;;;;;;19.77;14.25;;;;;;;13.03;62.56;100045.50;5028490;28;20486;-80
2024/02/23 09:16:53;;;;;;;19.63;14.48;;;;;;;13.12;62.13;100054.81;5029929;28;20049;-78
2024/02/23 09:19:20;;;;;;;20.80;14.88;;;;;;;13.61;59.86;100057.97;5030018;28;20033;-78
2024/02/23 09:21:45;;;;;;;19.08;13.85;;;;;;;13.56;58.49;100041.78;5030113;28;20089;-79
2024/02/23 09:24:11;;;;;;;29.45;18.60;;;;;;;13.61;60.90;100051.78;5036196;28;20220;-79
2024/02/23 09:26:36;;;;;;;24.15;17.17;;;;;;;14.10;58.14;100032.53;5048345;28;20529;-80
2024/02/23 09:29:02;;;;;;;21.88;14.93;;;;;;;13.93;56.13;100029.84;5049987;28;20105;-79
2024/02/23 09:31:31;;;;;;;21.20;14.50;;;;;;;14.30;57.20;100048.94;5038861;28;20033;-79
2024/02/23 09:33:57;;;;;;;22.67;16.73;;;;;;;14.53;54.87;100041.81;5029792;28;20494;-79
2024/02/23 09:36:22;;;;;;;19.45;14.18;;;;;;;14.58;56.44;100039.22;5027506;28;20124;-79
2024/02/23 09:38:48;;;;;;;24.80;16.45;;;;;;;14.61;54.90;100022.66;5029903;28;20538;-78
2024/02/23 09:41:21;;;;;;;20.38;14.93;;;;;;;14.82;54.17;100040.66;5029566;28;20026;-80
2024/02/23 09:43:51;;;;;;;27.08;16.70;;;;;;;14.63;53.48;100009.78;5021310;28;20017;-79
2024/02/23 09:46:17;;;;;;;20.42;14.90;;;;;;;15.33;51.85;100012.81;5029340;28;20540;-78
2024/02/23 09:48:43;;;;;;;22.42;14.90;;;;;;;15.47;52.12;100028.28;5029469;28;20109;-78
2024/02/23 09:51:11;;;;;;;21.45;14.68;;;;;;;15.22;53.66;100033.38;5029379;28;20605;-79
2024/02/23 09:53:38;;;;;;;20.70;13.85;;;;;;;15.33;52.71;100013.63;5027849;28;20045;-79
2024/02/23 09:56:05;;;;;;;19.15;13.55;;;;;;;15.52;50.44;100024.03;5008570;28;20029;-78
2024/02/23 09:58:35;;;;;;;18.65;13.70;;;;;;;15.53;51.72;100007.66;5009440;28;20025;-78
2024/02/23 10:01:02;;;;;;;17.70;13.55;;;;;;;15.58;50.04;100001.53;5015328;28;20029;-78
2024/02/23 10:03:30;;;;;;;18.35;12.38;;;;;;;15.79;47.76;99998.00;5028762;28;20030;-78
2024/02/23 10:06:02;;;;;;;18.23;12.48;;;;;;;15.86;47.67;99981.66;5029150;28;20034;-79
2024/02/23 10:08:28;;;;;;;17.33;12.57;;;;;;;16.12;47.06;100003.38;5029405;28;20070;-77
2024/02/23 10:10:55;;;;;;;17.25;12.70;;;;;;;16.51;46.83;100005.81;5027610;28;20030;-80
2024/02/23 10:13:24;;;;;;;18.88;12.50;;;;;;;16.60;44.81;99993.50;5025748;28;20033;-79
2024/02/23 10:15:50;;;;;;;18.70;12.98;;;;;;;17.03;43.93;100002.34;5024496;28;20080;-79
2024/02/23 10:18:16;;;;;;;15.68;11.90;;;;;;;17.48;42.29;99992.78;5027508;28;20129;-78
2024/02/23 10:20:42;;;;;;;18.95;12.63;;;;;;;16.63;44.33;99971.41;5028329;28;20041;-78
2024/02/23 10:23:08;;;;;;;16.55;11.75;;;;;;;16.66;44.70;99965.53;5028736;28;20040;-78
2024/02/23 10:25:35;;;;;;;16.15;11.98;;;;;;;17.23;44.61;99962.00;5043577;28;20041;-79
2024/02/23 10:28:05;;;;;;;14.77;11.45;;;;;;;17.20;42.82;99976.03;5048474;28;20045;-78
2024/02/23 10:30:31;;;;;;;17.23;12.00;;;;;;;17.72;41.86;99959.94;5045651;28;20565;-80
2024/02/23 10:32:57;;;;;;;16.75;12.45;;;;;;;18.22;40.58;99963.72;5008899;28;20033;-78
2024/02/23 10:35:24;;;;;;;15.25;11.68;;;;;;;17.84;41.72;99960.53;5028705;28;20033;-78
2024/02/23 10:37:51;;;;;;;16.83;12.38;;;;;;;17.63;41.87;99954.25;5028755;28;20037;-78
2024/02/23 10:40:18;;;;;;;17.42;12.98;;;;;;;17.96;42.11;99941.34;5028492;28;20034;-78
2024/02/23 10:42:50;;;;;;;18.63;13.48;;;;;;;18.21;42.49;99952.13;5028480;28;20040;-80
2024/02/23 10:45:17;;;;;;;18.50;13.32;;;;;;;18.10;41.89;99938.91;5027782;28;20486;-78
2024/02/23 10:47:43;;;;;;;20.40;14.48;;;;;;;17.79;41.43;99945.09;5028417;28;20052;-80
2024/02/23 10:50:09;;;;;;;19.05;14.18;;;;;;;18.09;41.30;99921.91;5028833;28;20039;-78
2024/02/23 10:52:36;;;;;;;14.82;11.10;;;;;;;18.96;37.27;99943.28;5045106;28;20033;-78
2024/02/23 10:55:04;;;;;;;14.00;10.77;;;;;;;18.36;38.93;99916.19;5044414;28;20075;-78
2024/02/23 10:57:32;;;;;;;13.85;9.48;;;;;;;18.64;39.40;99924.75;5048168;28;20032;-78
2024/02/23 10:59:58;;;;;;;15.48;11.93;;;;;;;18.98;39.30;99902.47;5048011;28;20052;-78
2024/02/23 11:02:26;;;;;;;16.63;11.88;;;;;;;19.17;38.35;99916.16;5031399;28;20033;-77
2024/02/23 11:04:52;;;;;;;;;;;;;;;19.68;37.32;99913.09;5033171;28;20043;-79
2024/02/23 11:07:21;;;;;;;18.15;12.20;;;;;;;20.00;37.37;99904.47;5046375;28;19932;-79